TimeCET,TemperatureF,Dew PointF,Humidity,Sea Level PressureIn,VisibilityMPH,Wind Direction,Wind SpeedMPH,Gust SpeedMPH,PrecipitationIn,Events,Conditions,WindDirDegrees,DateUTC
1:30 AM,57.2,48.2,72,29.80,-9999.0,Variable,1.2,-,N/A,,Clear,0,2013-03-19 00:30:00
2:00 AM,55.4,48.2,77,29.80,-9999.0,NW,2.3,-,N/A,,Clear,320,2013-03-19 01:00:00
2:30 AM,57.2,50.0,77,29.77,-9999.0,Variable,2.3,-,N/A,,Clear,0,2013-03-19 01:30:00
3:00 AM,53.6,48.2,82,29.77,-9999.0,NW,3.5,-,N/A,,Clear,320,2013-03-19 02:00:00
3:30 AM,53.6,48.2,82,29.77,-9999.0,NW,3.5,-,N/A,,Clear,310,2013-03-19 02:30:00
4:00 AM,57.2,50.0,77,29.74,-9999.0,WSW,4.6,-,N/A,,Clear,240,2013-03-19 03:00:00
4:30 AM,55.4,48.2,77,29.74,-9999.0,Calm,Calm,-,N/A,,Clear,0,2013-03-19 03:30:00
6:00 AM,55.4,50.0,82,29.74,-9999.0,WSW,3.5,-,N/A,,Clear,240,2013-03-19 05:00:00
6:30 AM,53.6,50.0,88,29.74,-9999.0,WNW,5.8,-,N/A,,Clear,300,2013-03-19 05:30:00
7:00 AM,53.6,50.0,88,29.74,-9999.0,NW,2.3,-,N/A,,Clear,310,2013-03-19 06:00:00
7:30 AM,57.2,51.8,82,29.74,-9999.0,Variable,1.2,-,N/A,,Clear,0,2013-03-19 06:30:00
8:00 AM,57.2,50.0,77,29.74,-9999.0,WSW,2.3,-,N/A,,Clear,240,2013-03-19 07:00:00
8:30 AM,57.2,51.8,82,29.74,-9999.0,Variable,1.2,-,N/A,,Clear,0,2013-03-19 07:30:00
9:00 AM,59.0,53.6,82,29.74,-9999.0,Variable,2.3,-,N/A,,Clear,0,2013-03-19 08:00:00
9:30 AM,64.4,53.6,68,29.74,-9999.0,Variable,1.2,-,N/A,,Clear,0,2013-03-19 08:30:00
10:00 AM,66.2,53.6,64,29.71,-9999.0,ESE,4.6,-,N/A,,Clear,120,2013-03-19 09:00:00
10:30 AM,66.2,53.6,64,29.74,-9999.0,East,4.6,-,N/A,,Clear,90,2013-03-19 09:30:00
11:00 AM,66.2,51.8,60,29.74,-9999.0,ENE,4.6,-,N/A,,Clear,60,2013-03-19 10:00:00
11:30 AM,66.2,50.0,56,29.71,-9999.0,East,5.8,-,N/A,,Clear,80,2013-03-19 10:30:00
12:00 PM,68.0,50.0,52,29.71,-9999.0,ENE,4.6,-,N/A,,Clear,70,2013-03-19 11:00:00
12:30 PM,66.2,50.0,56,29.71,-9999.0,NE,5.8,-,N/A,,Clear,50,2013-03-19 11:30:00
1:00 PM,67,50,43,29.70,25,NE,5.8,,,,Scattered Clouds,50,2013-03-19 12:00:00
1:00 PM,66.2,50.0,56,29.71,-9999.0,NE,6.9,-,N/A,,Clear,50,2013-03-19 12:00:00
1:30 PM,68.0,51.8,56,29.68,-9999.0,ENE,4.6,-,N/A,,Clear,60,2013-03-19 12:30:00
2:00 PM,68.0,51.8,56,29.68,-9999.0,NE,4.6,-,N/A,,Clear,40,2013-03-19 13:00:00
2:30 PM,68.0,51.8,56,29.68,-9999.0,East,5.8,-,N/A,,Clear,80,2013-03-19 13:30:00
3:00 PM,66.2,51.8,60,29.65,-9999.0,ENE,6.9,-,N/A,,Clear,70,2013-03-19 14:00:00
3:30 PM,66.2,51.8,60,29.65,-9999.0,East,4.6,-,N/A,,Clear,90,2013-03-19 14:30:00
4:00 PM,66.2,51.8,60,29.65,-9999.0,Variable,2.3,-,N/A,,Clear,0,2013-03-19 15:00:00
4:30 PM,64.4,51.8,64,29.65,-9999.0,Variable,2.3,-,N/A,,Clear,0,2013-03-19 15:30:00
5:00 PM,64.4,51.8,64,29.62,-9999.0,ESE,3.5,-,N/A,,Clear,120,2013-03-19 16:00:00
5:30 PM,64.4,51.8,64,29.62,-9999.0,ESE,5.8,-,N/A,,Clear,120,2013-03-19 16:30:00
6:00 PM,64.4,51.8,64,29.65,-9999.0,ESE,4.6,-,N/A,,Clear,110,2013-03-19 17:00:00
6:30 PM,66.2,51.8,60,29.65,-9999.0,Variable,2.3,-,N/A,,Clear,0,2013-03-19 17:30:00
7:00 PM,64,52,55,29.65,19,ESE,2.3,,,,Mostly Cloudy,120,2013-03-19 18:00:00
7:00 PM,64.4,51.8,64,29.65,-9999.0,ESE,3.5,-,N/A,,Clear,120,2013-03-19 18:00:00
7:30 PM,64.4,51.8,64,29.65,-9999.0,Calm,Calm,-,N/A,,Clear,0,2013-03-19 18:30:00